Time,TemperatureF,DewpointF,PressureIn,WindDirection,WindDirectionDegrees,WindSpeedMPH,WindSpeedGustMPH,Humidity,HourlyPrecipIn,Conditions,Clouds,dailyrainin,SoftwareType,DateUTC
2013-10-21 00:00:00,51.0,39.7,29.90,NW,320,0.0,0.0,65,0.00,,---,0.00,VWS V14.01,2013-10-21 05:00:00,
2013-10-21 00:01:00,50.8,40.6,29.91,NW,320,0.0,0.0,68,0.00,,---,0.00,VWS V14.01,2013-10-21 05:01:00,
2013-10-21 00:06:00,50.5,40.3,29.91,NW,320,0.0,0.0,68,0.00,,---,0.00,VWS V14.01,2013-10-21 05:06:00,
2013-10-21 00:11:00,50.4,40.2,29.91,NW,320,0.0,0.0,68,0.00,,---,0.00,VWS V14.01,2013-10-21 05:11:00,
2013-10-21 00:16:00,50.2,40.1,29.92,NW,320,0.0,0.0,68,0.00,,---,0.00,VWS V14.01,2013-10-21 05:16:00,
2013-10-21 00:21:00,50.7,40.9,29.92,NNW,342,3.0,3.0,69,0.00,,---,0.00,VWS V14.01,2013-10-21 05:21:00,
2013-10-21 00:26:00,52.2,42.3,29.92,NNW,339,0.0,6.0,69,0.00,,---,0.00,VWS V14.01,2013-10-21 05:26:00,
2013-10-21 00:30:00,51.6,40.6,29.91,NW,320,0.0,0.0,66,0.00,,---,0.00,VWS V14.01,2013-10-21 05:30:00,
2013-10-21 00:31:00,53.2,43.3,29.92,NNW,340,0.0,0.0,69,0.00,,---,0.00,VWS V14.01,2013-10-21 05:31:00,
2013-10-21 00:36:00,53.8,43.5,29.92,NNW,344,0.0,4.0,68,0.00,,---,0.00,VWS V14.01,2013-10-21 05:36:00,
2013-10-21 00:41:00,54.2,43.9,29.92,NNW,344,2.0,6.0,68,0.00,,---,0.00,VWS V14.01,2013-10-21 05:41:00,
2013-10-21 00:46:00,54.5,43.8,29.92,NNW,340,0.0,6.0,67,0.00,,---,0.00,VWS V14.01,2013-10-21 05:46:00,
2013-10-21 00:51:00,54.5,43.8,29.92,NNW,336,0.0,6.0,67,0.00,,---,0.00,VWS V14.01,2013-10-21 05:51:00,
2013-10-21 00:56:00,54.5,43.4,29.92,NNW,347,5.0,7.0,66,0.00,,---,0.00,VWS V14.01,2013-10-21 05:56:00,
2013-10-21 01:00:00,50.8,40.6,29.91,NW,320,0.0,0.0,68,0.00,,---,0.00,VWS V14.01,2013-10-21 06:00:00,
2013-10-21 01:01:00,54.7,43.6,29.93,NE,36,2.0,2.0,66,0.00,,---,0.00,VWS V14.01,2013-10-21 06:01:00,
2013-10-21 01:06:00,54.7,43.2,29.93,NNW,328,4.0,8.0,65,0.00,,---,0.00,VWS V14.01,2013-10-21 06:06:00,
2013-10-21 01:11:00,54.7,43.2,29.93,North,350,3.0,9.0,65,0.00,,---,0.00,VWS V14.01,2013-10-21 06:11:00,
2013-10-21 01:16:00,54.5,43.0,29.93,NNW,328,4.0,11.0,65,0.00,,---,0.00,VWS V14.01,2013-10-21 06:16:00,
2013-10-21 01:21:00,54.4,42.5,29.93,NNW,330,8.0,12.0,64,0.00,,---,0.00,VWS V14.01,2013-10-21 06:21:00,
2013-10-21 01:26:00,54.2,42.3,29.93,North,5,8.0,12.0,64,0.00,,---,0.00,VWS V14.01,2013-10-21 06:26:00,
2013-10-21 01:30:00,53.2,43.3,29.92,NNW,340,0.0,6.0,69,0.00,,---,0.00,VWS V14.01,2013-10-21 06:30:00,
2013-10-21 01:31:00,54.1,42.2,29.94,NNW,332,6.0,7.0,64,0.00,,---,0.00,VWS V14.01,2013-10-21 06:31:00,
2013-10-21 01:36:00,53.9,41.6,29.94,North,9,5.0,11.0,63,0.00,,---,0.00,VWS V14.01,2013-10-21 06:36:00,
2013-10-21 01:41:00,53.6,41.3,29.94,NNW,346,7.0,11.0,63,0.00,,---,0.00,VWS V14.01,2013-10-21 06:41:00,
2013-10-21 01:46:00,53.3,41.0,29.94,NNW,338,3.0,11.0,63,0.00,,---,0.00,VWS V14.01,2013-10-21 06:46:00,
2013-10-21 01:51:00,53.1,40.8,29.94,North,360,11.0,11.0,63,0.00,,---,0.00,VWS V14.01,2013-10-21 06:51:00,
2013-10-21 01:56:00,52.9,40.7,29.94,North,349,6.0,11.0,63,0.00,,---,0.00,VWS V14.01,2013-10-21 06:56:00,
2013-10-21 02:00:00,54.7,43.6,29.93,NE,36,2.0,10.0,66,0.00,,---,0.00,VWS V14.01,2013-10-21 07:00:00,
2013-10-21 02:01:00,52.6,40.4,29.95,North,349,5.0,11.0,63,0.00,,---,0.00,VWS V14.01,2013-10-21 07:01:00,
2013-10-21 02:06:00,52.3,40.1,29.95,NNE,28,3.0,9.0,63,0.00,,---,0.00,VWS V14.01,2013-10-21 07:06:00,
2013-10-21 02:11:00,52.2,40.0,29.95,North,360,3.0,9.0,63,0.00,,---,0.00,VWS V14.01,2013-10-21 07:11:00,
2013-10-21 02:16:00,51.7,39.5,29.96,North,5,6.0,9.0,63,0.00,,---,0.00,VWS V14.01,2013-10-21 07:16:00,
2013-10-21 02:21:00,51.6,39.8,29.96,North,5,5.0,9.0,64,0.00,,---,0.00,VWS V14.01,2013-10-21 07:21:00,
2013-10-21 02:26:00,51.6,39.8,29.96,NNW,337,4.0,10.0,64,0.00,,---,0.00,VWS V14.01,2013-10-21 07:26:00,
2013-10-21 02:30:00,54.1,42.2,29.94,NNW,338,7.0,16.0,64,0.00,,---,0.00,VWS V14.01,2013-10-21 07:30:00,
2013-10-21 02:31:00,51.4,39.7,29.97,North,355,3.0,10.0,64,0.00,,---,0.00,VWS V14.01,2013-10-21 07:31:00,
2013-10-21 02:36:00,51.4,39.7,29.97,North,5,4.0,11.0,64,0.00,,---,0.00,VWS V14.01,2013-10-21 07:36:00,
2013-10-21 02:41:00,51.6,39.8,29.97,ENE,57,2.0,13.0,64,0.00,,---,0.00,VWS V14.01,2013-10-21 07:41:00,
2013-10-21 02:46:00,51.6,39.8,29.97,NNW,333,6.0,13.0,64,0.00,,---,0.00,VWS V14.01,2013-10-21 07:46:00,
2013-10-21 02:51:00,51.6,39.8,29.97,NNW,340,4.0,13.0,64,0.00,,---,0.00,VWS V14.01,2013-10-21 07:51:00,
2013-10-21 02:56:00,51.4,39.7,29.97,NNW,333,7.0,13.0,64,0.00,,---,0.00,VWS V14.01,2013-10-21 07:56:00,
2013-10-21 03:00:00,52.6,40.4,29.95,North,349,5.0,11.0,63,0.00,,---,0.00,VWS V14.01,2013-10-21 08:00:00,
2013-10-21 03:01:00,51.4,39.7,29.98,NNE,17,6.0,13.0,64,0.00,,---,0.00,VWS V14.01,2013-10-21 08:01:00,
2013-10-21 03:06:00,51.3,39.5,29.98,NNW,344,8.0,11.0,64,0.00,,---,0.00,VWS V14.01,2013-10-21 08:06:00,
2013-10-21 03:11:00,51.1,39.4,29.98,North,355,4.0,11.0,64,0.00,,---,0.00,VWS V14.01,2013-10-21 08:11:00,
2013-10-21 03:16:00,50.8,39.1,29.98,NNW,338,7.0,12.0,64,0.00,,---,0.00,VWS V14.01,2013-10-21 08:16:00,
2013-10-21 03:21:00,50.5,38.8,29.98,NNW,338,4.0,12.0,64,0.00,,---,0.00,VWS V14.01,2013-10-21 08:21:00,
2013-10-21 03:26:00,50.2,38.5,29.98,NNW,339,7.0,12.0,64,0.00,,---,0.00,VWS V14.01,2013-10-21 08:26:00,
2013-10-21 03:30:00,51.4,39.7,29.97,North,350,4.0,10.0,64,0.00,,---,0.00,VWS V14.01,2013-10-21 08:30:00,
2013-10-21 03:31:00,49.8,38.1,29.98,NW,325,9.0,12.0,64,0.00,,---,0.00,VWS V14.01,2013-10-21 08:31:00,
2013-10-21 03:35:00,49.5,37.8,29.98,NNW,340,4.0,10.0,64,0.00,,---,0.00,VWS V14.01,2013-10-21 08:35:00,
2013-10-21 03:40:00,49.2,37.6,29.98,NNW,344,3.0,10.0,64,0.00,,---,0.00,VWS V14.01,2013-10-21 08:40:00,
2013-10-21 03:45:00,48.8,37.2,29.99,North,355,5.0,12.0,64,0.00,,---,0.00,VWS V14.01,2013-10-21 08:45:00,
2013-10-21 03:50:00,48.5,37.3,29.99,NW,319,2.0,12.0,65,0.00,,---,0.00,VWS V14.01,2013-10-21 08:50:00,
2013-10-21 03:55:00,48.3,37.1,29.99,NNE,23,5.0,12.0,65,0.00,,---,0.00,VWS V14.01,2013-10-21 08:55:00,
2013-10-21 04:00:00,48.0,36.8,29.99,NNW,344,4.0,12.0,65,0.00,,---,0.00,VWS V14.01,2013-10-21 09:00:00,
2013-10-21 04:05:00,47.7,36.5,29.99,NNE,14,4.0,11.0,65,0.00,,---,0.00,VWS V14.01,2013-10-21 09:05:00,
2013-10-21 04:10:00,47.6,36.4,29.99,NNE,18,5.0,11.0,65,0.00,,---,0.00,VWS V14.01,2013-10-21 09:10:00,
2013-10-21 04:15:00,47.4,36.6,29.99,North,11,5.0,11.0,66,0.00,,---,0.00,VWS V14.01,2013-10-21 09:15:00,
2013-10-21 04:20:00,47.3,36.5,29.99,NNE,19,8.0,13.0,66,0.00,,---,0.00,VWS V14.01,2013-10-21 09:20:00,
2013-10-21 04:25:00,47.0,36.2,29.99,North,9,5.0,13.0,66,0.00,,---,0.00,VWS V14.01,2013-10-21 09:25:00,
2013-10-21 04:30:00,46.8,36.0,30.00,NNW,347,3.0,13.0,66,0.00,,---,0.00,VWS V14.01,2013-10-21 09:30:00,
2013-10-21 04:35:00,46.7,36.0,30.00,North,360,4.0,12.0,66,0.00,,---,0.00,VWS V14.01,2013-10-21 09:35:00,
2013-10-21 04:40:00,46.5,36.2,30.00,NNW,338,4.0,12.0,67,0.00,,---,0.00,VWS V14.01,2013-10-21 09:40:00,
2013-10-21 04:45:00,46.4,36.0,30.01,NNW,328,5.0,12.0,67,0.00,,---,0.00,VWS V14.01,2013-10-21 09:45:00,
2013-10-21 04:50:00,46.2,35.9,30.01,North,349,9.0,12.0,67,0.00,,---,0.00,VWS V14.01,2013-10-21 09:50:00,
2013-10-21 04:55:00,46.1,35.8,30.01,North,355,8.0,12.0,67,0.00,,---,0.00,VWS V14.01,2013-10-21 09:55:00,
2013-10-21 05:00:00,45.8,35.5,30.01,North,350,6.0,14.0,67,0.00,,---,0.00,VWS V14.01,2013-10-21 10:00:00,
2013-10-21 05:05:00,45.7,35.4,30.01,North,5,9.0,9.0,67,0.00,,---,0.00,VWS V14.01,2013-10-21 10:05:00,
2013-10-21 05:10:00,45.5,35.2,30.01,North,11,4.0,12.0,67,0.00,,---,0.00,VWS V14.01,2013-10-21 10:10:00,
2013-10-21 05:15:00,45.4,35.1,30.01,North,5,5.0,12.0,67,0.00,,---,0.00,VWS V14.01,2013-10-21 10:15:00,
2013-10-21 05:20:00,45.2,34.9,30.01,North,350,6.0,12.0,67,0.00,,---,0.00,VWS V14.01,2013-10-21 10:20:00,
2013-10-21 05:25:00,45.2,34.9,30.01,NNW,344,5.0,12.0,67,0.00,,---,0.00,VWS V14.01,2013-10-21 10:25:00,
2013-10-21 05:30:00,45.1,34.8,30.02,NNW,346,5.0,12.0,67,0.00,,---,0.00,VWS V14.01,2013-10-21 10:30:00,
2013-10-21 05:35:00,44.8,34.9,30.02,North,351,3.0,9.0,68,0.00,,---,0.00,VWS V14.01,2013-10-21 10:35:00,
2013-10-21 05:40:00,44.6,34.7,30.02,NNE,17,4.0,9.0,68,0.00,,---,0.00,VWS V14.01,2013-10-21 10:40:00,
2013-10-21 05:45:00,44.5,34.6,30.02,North,355,6.0,10.0,68,0.00,,---,0.00,VWS V14.01,2013-10-21 10:45:00,
2013-10-21 05:50:00,44.3,34.4,30.02,NNW,335,5.0,10.0,68,0.00,,---,0.00,VWS V14.01,2013-10-21 10:50:00,
2013-10-21 05:55:00,44.2,34.3,30.02,North,360,4.0,10.0,68,0.00,,---,0.00,VWS V14.01,2013-10-21 10:55:00,
2013-10-21 06:00:00,44.1,34.2,30.03,NNW,330,4.0,10.0,68,0.00,,---,0.00,VWS V14.01,2013-10-21 11:00:00,
2013-10-21 06:05:00,43.8,33.9,30.03,NNW,335,4.0,8.0,68,0.00,,---,0.00,VWS V14.01,2013-10-21 11:05:00,
2013-10-21 06:10:00,43.6,35.2,30.03,NNW,335,3.0,8.0,72,0.00,,---,0.00,VWS V14.01,2013-10-21 11:10:00,
2013-10-21 06:15:00,43.3,33.8,30.04,NNE,22,5.0,8.0,69,0.00,,---,0.00,VWS V14.01,2013-10-21 11:15:00,
2013-10-21 06:20:00,43.2,33.7,30.04,NNE,19,5.0,8.0,69,0.00,,---,0.00,VWS V14.01,2013-10-21 11:20:00,
2013-10-21 06:25:00,43.1,33.6,30.04,North,355,3.0,8.0,69,0.00,,---,0.00,VWS V14.01,2013-10-21 11:25:00,
2013-10-21 06:30:00,43.1,34.0,30.04,North,11,1.0,8.0,70,0.00,,---,0.00,VWS V14.01,2013-10-21 11:30:00,
2013-10-21 06:35:00,42.9,33.8,30.04,NNW,337,4.0,5.0,70,0.00,,---,0.00,VWS V14.01,2013-10-21 11:35:00,
2013-10-21 06:40:00,42.8,33.7,30.04,North,360,0.0,5.0,70,0.00,,---,0.00,VWS V14.01,2013-10-21 11:40:00,
2013-10-21 06:45:00,42.8,33.7,30.05,NW,323,2.0,5.0,70,0.00,,---,0.00,VWS V14.01,2013-10-21 11:45:00,
2013-10-21 06:50:00,42.8,33.7,30.05,NNW,342,2.0,5.0,70,0.00,,---,0.00,VWS V14.01,2013-10-21 11:50:00,
2013-10-21 06:55:00,42.6,33.9,30.05,NNW,340,5.0,7.0,71,0.00,,---,0.00,VWS V14.01,2013-10-21 11:55:00,
2013-10-21 07:00:00,42.6,33.9,30.05,NW,325,4.0,7.0,71,0.00,,---,0.00,VWS V14.01,2013-10-21 12:00:00,
2013-10-21 07:05:00,42.5,33.8,30.05,North,360,3.0,5.0,71,0.00,,---,0.00,VWS V14.01,2013-10-21 12:05:00,
2013-10-21 07:10:00,42.3,33.6,30.05,NNW,346,3.0,5.0,71,0.00,,---,0.00,VWS V14.01,2013-10-21 12:10:00,
2013-10-21 07:15:00,42.3,33.6,30.06,NNW,345,2.0,5.0,71,0.00,,---,0.00,VWS V14.01,2013-10-21 12:15:00,
2013-10-21 07:20:00,42.2,33.5,30.06,NNW,330,3.0,7.0,71,0.00,,---,0.00,VWS V14.01,2013-10-21 12:20:00,
2013-10-21 07:25:00,42.2,33.5,30.06,NNW,334,1.0,7.0,71,0.00,,---,0.00,VWS V14.01,2013-10-21 12:25:00,
2013-10-21 07:30:00,42.2,33.5,30.06,North,350,2.0,7.0,71,0.00,,---,0.00,VWS V14.01,2013-10-21 12:30:00,
2013-10-21 07:35:00,42.1,33.7,30.06,North,355,3.0,6.0,72,0.00,,---,0.00,VWS V14.01,2013-10-21 12:35:00,
2013-10-21 07:40:00,41.9,33.5,30.06,North,355,3.0,6.0,72,0.00,,---,0.00,VWS V14.01,2013-10-21 12:40:00,
2013-10-21 07:45:00,41.9,33.5,30.06,NNW,348,3.0,6.0,72,0.00,,---,0.00,VWS V14.01,2013-10-21 12:45:00,
2013-10-21 07:50:00,41.9,33.5,30.06,NNW,338,2.0,7.0,72,0.00,,---,0.00,VWS V14.01,2013-10-21 12:50:00,
2013-10-21 07:55:00,41.9,33.9,30.06,NW,322,4.0,9.0,73,0.00,,---,0.00,VWS V14.01,2013-10-21 12:55:00,
2013-10-21 08:00:00,41.9,33.9,30.07,NNE,16,2.0,9.0,73,0.00,,---,0.00,VWS V14.01,2013-10-21 13:00:00,
2013-10-21 08:05:00,41.9,33.9,30.07,NNW,346,5.0,6.0,73,0.00,,---,0.00,VWS V14.01,2013-10-21 13:05:00,
2013-10-21 08:10:00,41.9,33.9,30.07,NNW,334,4.0,6.0,73,0.00,,---,0.00,VWS V14.01,2013-10-21 13:10:00,
2013-10-21 08:15:00,41.8,33.8,30.07,North,5,3.0,6.0,73,0.00,,---,0.00,VWS V14.01,2013-10-21 13:15:00,
2013-10-21 08:20:00,41.8,33.8,30.07,NNW,339,4.0,9.0,73,0.00,,---,0.00,VWS V14.01,2013-10-21 13:20:00,
2013-10-21 08:25:00,41.6,33.6,30.07,NNW,343,0.0,10.0,73,0.00,,---,0.00,VWS V14.01,2013-10-21 13:25:00,
2013-10-21 08:30:00,41.6,33.6,30.08,NNW,337,1.0,10.0,73,0.00,,---,0.00,VWS V14.01,2013-10-21 13:30:00,
2013-10-21 08:35:00,41.5,33.5,30.08,NNW,334,4.0,5.0,73,0.00,,---,0.00,VWS V14.01,2013-10-21 13:35:00,
2013-10-21 08:40:00,41.5,33.8,30.08,North,355,2.0,5.0,74,0.00,,---,0.00,VWS V14.01,2013-10-21 13:40:00,
2013-10-21 08:45:00,41.5,33.8,30.09,North,360,5.0,10.0,74,0.00,,---,0.00,VWS V14.01,2013-10-21 13:45:00,
2013-10-21 08:50:00,41.3,33.7,30.09,North,5,3.0,10.0,74,0.00,,---,0.00,VWS V14.01,2013-10-21 13:50:00,
2013-10-21 08:55:00,41.3,33.7,30.09,NNW,330,3.0,10.0,74,0.00,,---,0.00,VWS V14.01,2013-10-21 13:55:00,
2013-10-21 09:00:00,41.3,33.7,30.09,NNW,335,4.0,10.0,74,0.00,,---,0.00,VWS V14.01,2013-10-21 14:00:00,
2013-10-21 09:05:00,41.5,33.8,30.09,NNE,17,4.0,6.0,74,0.00,,---,0.00,VWS V14.01,2013-10-21 14:05:00,
2013-10-21 09:10:00,41.3,33.7,30.09,North,5,5.0,7.0,74,0.00,,---,0.00,VWS V14.01,2013-10-21 14:10:00,
2013-10-21 09:15:00,41.5,33.8,30.09,NNW,347,3.0,7.0,74,0.00,,---,0.00,VWS V14.01,2013-10-21 14:15:00,
2013-10-21 09:20:00,41.5,33.8,30.09,NNW,334,5.0,8.0,74,0.00,,---,0.00,VWS V14.01,2013-10-21 14:20:00,
2013-10-21 09:25:00,41.5,33.8,30.09,North,355,4.0,8.0,74,0.00,,---,0.00,VWS V14.01,2013-10-21 14:25:00,
2013-10-21 09:30:00,41.5,33.8,30.09,NNW,331,3.0,8.0,74,0.00,,---,0.00,VWS V14.01,2013-10-21 14:30:00,
2013-10-21 09:35:00,41.5,33.8,30.09,North,5,2.0,7.0,74,0.00,,---,0.00,VWS V14.01,2013-10-21 14:35:00,
2013-10-21 09:40:00,41.5,33.8,30.09,North,5,3.0,7.0,74,0.00,,---,0.00,VWS V14.01,2013-10-21 14:40:00,
2013-10-21 09:45:00,41.6,33.9,30.10,NW,323,2.0,7.0,74,0.00,,---,0.00,VWS V14.01,2013-10-21 14:45:00,
2013-10-21 09:50:00,41.9,34.2,30.10,North,5,5.0,10.0,74,0.00,,---,0.00,VWS V14.01,2013-10-21 14:50:00,
2013-10-21 09:55:00,42.2,34.5,30.10,NNE,24,2.0,10.0,74,0.00,,---,0.00,VWS V14.01,2013-10-21 14:55:00,
2013-10-21 10:00:00,42.5,34.8,30.09,North,355,2.0,10.0,74,0.00,,---,0.00,VWS V14.01,2013-10-21 15:00:00,
2013-10-21 10:05:00,42.6,34.9,30.09,North,360,5.0,7.0,74,0.00,,---,0.00,VWS V14.01,2013-10-21 15:05:00,
2013-10-21 10:10:00,42.9,35.2,30.09,ENE,58,3.0,7.0,74,0.00,,---,0.00,VWS V14.01,2013-10-21 15:10:00,
2013-10-21 10:15:00,43.1,35.0,30.09,North,355,5.0,8.0,73,0.00,,---,0.00,VWS V14.01,2013-10-21 15:15:00,
2013-10-21 10:20:00,43.2,35.1,30.09,North,355,4.0,8.0,73,0.00,,---,0.00,VWS V14.01,2013-10-21 15:20:00,
2013-10-21 10:25:00,43.3,35.2,30.09,NNW,341,6.0,8.0,73,0.00,,---,0.00,VWS V14.01,2013-10-21 15:25:00,
2013-10-21 10:30:00,43.6,35.5,30.09,North,355,1.0,8.0,73,0.00,,---,0.00,VWS V14.01,2013-10-21 15:30:00,
2013-10-21 10:35:00,43.8,35.7,30.09,North,9,2.0,7.0,73,0.00,,---,0.00,VWS V14.01,2013-10-21 15:35:00,
2013-10-21 10:40:00,43.6,35.2,30.09,NNW,343,2.0,7.0,72,0.00,,---,0.00,VWS V14.01,2013-10-21 15:40:00,
2013-10-21 10:45:00,44.1,36.0,30.09,North,355,4.0,8.0,73,0.00,,---,0.00,VWS V14.01,2013-10-21 15:45:00,
2013-10-21 10:50:00,44.2,35.8,30.09,North,5,3.0,9.0,72,0.00,,---,0.00,VWS V14.01,2013-10-21 15:50:00,
2013-10-21 10:55:00,44.3,35.9,30.09,NNW,338,6.0,9.0,72,0.00,,---,0.00,VWS V14.01,2013-10-21 15:55:00,
2013-10-21 11:00:00,44.3,35.5,30.09,North,5,4.0,9.0,71,0.00,,---,0.00,VWS V14.01,2013-10-21 16:00:00,
2013-10-21 11:05:00,44.5,35.7,30.09,NNW,333,3.0,7.0,71,0.00,,---,0.00,VWS V14.01,2013-10-21 16:05:00,
2013-10-21 11:10:00,44.5,35.7,30.09,North,355,0.0,7.0,71,0.00,,---,0.00,VWS V14.01,2013-10-21 16:10:00,
2013-10-21 11:15:00,44.6,35.8,30.09,NNW,344,4.0,7.0,71,0.00,,---,0.00,VWS V14.01,2013-10-21 16:15:00,
2013-10-21 11:20:00,44.9,35.7,30.10,NNW,335,6.0,11.0,70,0.00,,---,0.00,VWS V14.01,2013-10-21 16:20:00,
2013-10-21 11:25:00,45.5,36.3,30.10,NNE,20,4.0,11.0,70,0.00,,---,0.00,VWS V14.01,2013-10-21 16:25:00,
2013-10-21 11:30:00,46.0,36.4,30.10,NNE,26,10.0,11.0,69,0.00,,---,0.00,VWS V14.01,2013-10-21 16:30:00,
2013-10-21 11:35:00,46.2,36.6,30.10,NW,322,2.0,7.0,69,0.00,,---,0.00,VWS V14.01,2013-10-21 16:35:00,
2013-10-21 11:40:00,46.4,36.4,30.10,NNW,336,4.0,8.0,68,0.00,,---,0.00,VWS V14.01,2013-10-21 16:40:00,
2013-10-21 11:45:00,47.1,36.7,30.10,NNW,342,5.0,10.0,67,0.00,,---,0.00,VWS V14.01,2013-10-21 16:45:00,
2013-10-21 11:50:00,47.6,36.8,30.10,NE,37,5.0,10.0,66,0.00,,---,0.00,VWS V14.01,2013-10-21 16:50:00,
2013-10-21 11:55:00,48.2,37.4,30.10,North,350,7.0,10.0,66,0.00,,---,0.00,VWS V14.01,2013-10-21 16:55:00,
2013-10-21 12:00:00,48.9,37.7,30.10,North,5,5.0,10.0,65,0.00,,---,0.00,VWS V14.01,2013-10-21 17:00:00,
2013-10-21 12:05:00,49.4,37.8,30.10,NNW,333,5.0,10.0,64,0.00,,---,0.00,VWS V14.01,2013-10-21 17:05:00,
2013-10-21 12:09:00,49.6,37.5,30.10,NNW,346,4.0,10.0,63,0.00,,---,0.00,VWS V14.01,2013-10-21 17:09:00,
2013-10-21 12:14:00,49.6,37.1,30.10,NNW,337,5.0,10.0,62,0.00,,---,0.00,VWS V14.01,2013-10-21 17:14:00,
2013-10-21 12:19:00,49.5,37.0,30.09,NE,36,4.0,10.0,62,0.00,,---,0.00,VWS V14.01,2013-10-21 17:19:00,
2013-10-21 12:24:00,49.5,37.0,30.09,NNW,344,4.0,10.0,62,0.00,,---,0.00,VWS V14.01,2013-10-21 17:24:00,
2013-10-21 12:29:00,49.9,37.4,30.09,NNW,338,9.0,10.0,62,0.00,,---,0.00,VWS V14.01,2013-10-21 17:29:00,
2013-10-21 12:30:00,46.0,36.4,30.10,NE,36,2.0,11.0,69,0.00,,---,0.00,VWS V14.01,2013-10-21 17:30:00,
2013-10-21 12:34:00,50.1,37.2,30.09,NNW,346,0.0,4.0,61,0.00,,---,0.00,VWS V14.01,2013-10-21 17:34:00,
2013-10-21 12:39:00,50.5,37.2,30.09,North,355,8.0,11.0,60,0.00,,---,0.00,VWS V14.01,2013-10-21 17:39:00,
2013-10-21 12:44:00,50.4,36.6,30.09,NNW,333,6.0,11.0,59,0.00,,---,0.00,VWS V14.01,2013-10-21 17:44:00,
2013-10-21 12:49:00,50.2,36.4,30.09,NNE,23,4.0,11.0,59,0.00,,---,0.00,VWS V14.01,2013-10-21 17:49:00,
2013-10-21 12:54:00,49.9,35.7,30.09,NW,323,3.0,11.0,58,0.00,,---,0.00,VWS V14.01,2013-10-21 17:54:00,
2013-10-21 12:59:00,49.9,35.7,30.09,NNW,340,6.0,11.0,58,0.00,,---,0.00,VWS V14.01,2013-10-21 17:59:00,
2013-10-21 13:00:00,48.9,37.7,30.10,NE,52,5.0,10.0,65,0.00,,---,0.00,VWS V14.01,2013-10-21 18:00:00,
2013-10-21 13:04:00,49.9,35.7,30.09,NE,38,1.0,8.0,58,0.00,,---,0.00,VWS V14.01,2013-10-21 18:04:00,
2013-10-21 13:09:00,50.2,36.0,30.09,North,360,4.0,8.0,58,0.00,,---,0.00,VWS V14.01,2013-10-21 18:09:00,
2013-10-21 13:14:00,50.4,36.2,30.09,NNW,340,8.0,8.0,58,0.00,,---,0.00,VWS V14.01,2013-10-21 18:14:00,
2013-10-21 13:19:00,50.5,35.8,30.08,NNW,342,7.0,11.0,57,0.00,,---,0.00,VWS V14.01,2013-10-21 18:19:00,
2013-10-21 13:24:00,50.7,36.0,30.08,NNE,21,5.0,11.0,57,0.00,,---,0.00,VWS V14.01,2013-10-21 18:24:00,
2013-10-21 13:29:00,51.0,36.3,30.08,North,350,0.0,11.0,57,0.00,,---,0.00,VWS V14.01,2013-10-21 18:29:00,
2013-10-21 13:30:00,49.9,37.0,30.09,North,5,1.0,10.0,61,0.00,,---,0.00,VWS V14.01,2013-10-21 18:30:00,
2013-10-21 13:34:00,51.3,36.6,30.08,NNW,328,2.0,8.0,57,0.00,,---,0.00,VWS V14.01,2013-10-21 18:34:00,
2013-10-21 13:39:00,51.6,36.9,30.08,West,273,2.0,8.0,57,0.00,,---,0.00,VWS V14.01,2013-10-21 18:39:00,
2013-10-21 13:44:00,51.6,36.4,30.08,NNW,340,1.0,8.0,56,0.00,,---,0.00,VWS V14.01,2013-10-21 18:44:00,
2013-10-21 13:49:00,51.7,36.1,30.07,North,9,4.0,8.0,55,0.00,,---,0.00,VWS V14.01,2013-10-21 18:49:00,
2013-10-21 13:54:00,51.9,36.3,30.07,NNW,348,2.0,8.0,55,0.00,,---,0.00,VWS V14.01,2013-10-21 18:54:00,
2013-10-21 13:59:00,52.0,36.3,30.07,NNW,327,2.0,8.0,55,0.00,,---,0.00,VWS V14.01,2013-10-21 18:59:00,
2013-10-21 14:00:00,49.9,35.7,30.09,North,5,5.0,11.0,58,0.00,,---,0.00,VWS V14.01,2013-10-21 19:00:00,
2013-10-21 14:04:00,52.2,36.1,30.06,NW,325,9.0,9.0,54,0.00,,---,0.00,VWS V14.01,2013-10-21 19:04:00,
2013-10-21 14:09:00,52.0,35.9,30.06,NNE,23,2.0,9.0,54,0.00,,---,0.00,VWS V14.01,2013-10-21 19:09:00,
2013-10-21 14:14:00,52.2,36.1,30.06,NNW,334,5.0,9.0,54,0.00,,---,0.00,VWS V14.01,2013-10-21 19:14:00,
2013-10-21 14:19:00,52.3,35.7,30.06,NNW,340,7.0,9.0,53,0.00,,---,0.00,VWS V14.01,2013-10-21 19:19:00,
2013-10-21 14:24:00,52.3,35.7,30.06,North,5,2.0,9.0,53,0.00,,---,0.00,VWS V14.01,2013-10-21 19:24:00,
2013-10-21 14:29:00,52.5,35.9,30.06,NE,44,0.0,9.0,53,0.00,,---,0.00,VWS V14.01,2013-10-21 19:29:00,
2013-10-21 14:30:00,51.1,36.4,30.08,NNW,333,3.0,11.0,57,0.00,,---,0.00,VWS V14.01,2013-10-21 19:30:00,
2013-10-21 14:34:00,52.6,35.5,30.05,NNW,343,3.0,6.0,52,0.00,,---,0.00,VWS V14.01,2013-10-21 19:34:00,
2013-10-21 14:39:00,52.6,35.5,30.05,North,350,0.0,7.0,52,0.00,,---,0.00,VWS V14.01,2013-10-21 19:39:00,
2013-10-21 14:44:00,52.9,35.8,30.05,NW,326,6.0,8.0,52,0.00,,---,0.00,VWS V14.01,2013-10-21 19:44:00,
2013-10-21 14:49:00,52.9,35.3,30.05,West,262,0.0,8.0,51,0.00,,---,0.00,VWS V14.01,2013-10-21 19:49:00,
2013-10-21 14:54:00,53.2,35.6,30.05,NNW,342,0.0,8.0,51,0.00,,---,0.00,VWS V14.01,2013-10-21 19:54:00,
2013-10-21 14:59:00,53.3,35.7,30.05,NNW,343,5.0,8.0,51,0.00,,---,0.00,VWS V14.01,2013-10-21 19:59:00,
2013-10-21 15:00:00,52.2,36.5,30.06,North,360,2.0,8.0,55,0.00,,---,0.00,VWS V14.01,2013-10-21 20:00:00,
2013-10-21 15:04:00,53.2,35.1,30.04,North,349,2.0,6.0,50,0.00,,---,0.00,VWS V14.01,2013-10-21 20:04:00,
2013-10-21 15:09:00,53.3,35.2,30.04,NNW,336,1.0,6.0,50,0.00,,---,0.00,VWS V14.01,2013-10-21 20:09:00,
2013-10-21 15:14:00,53.6,35.4,30.04,West,273,1.0,6.0,50,0.00,,---,0.00,VWS V14.01,2013-10-21 20:14:00,
2013-10-21 15:19:00,54.1,35.9,30.04,NNW,330,5.0,6.0,50,0.00,,---,0.00,VWS V14.01,2013-10-21 20:19:00,
2013-10-21 15:24:00,53.9,35.2,30.04,North,360,0.0,6.0,49,0.00,,---,0.00,VWS V14.01,2013-10-21 20:24:00,
2013-10-21 15:29:00,54.1,35.4,30.04,North,360,1.0,6.0,49,0.00,,---,0.00,VWS V14.01,2013-10-21 20:29:00,
2013-10-21 15:30:00,52.6,36.0,30.05,NE,34,2.0,9.0,53,0.00,,---,0.00,VWS V14.01,2013-10-21 20:30:00,
2013-10-21 15:34:00,54.2,35.5,30.04,NNW,336,2.0,6.0,49,0.00,,---,0.00,VWS V14.01,2013-10-21 20:34:00,
2013-10-21 15:39:00,54.4,35.7,30.04,NNW,332,2.0,6.0,49,0.00,,---,0.00,VWS V14.01,2013-10-21 20:39:00,
2013-10-21 15:44:00,54.4,35.1,30.04,North,350,0.0,6.0,48,0.00,,---,0.00,VWS V14.01,2013-10-21 20:44:00,
2013-10-21 15:49:00,54.5,35.8,30.04,North,350,1.0,6.0,49,0.00,,---,0.00,VWS V14.01,2013-10-21 20:49:00,
2013-10-21 15:54:00,54.7,35.4,30.04,NE,38,4.0,6.0,48,0.00,,---,0.00,VWS V14.01,2013-10-21 20:54:00,
2013-10-21 15:59:00,54.4,35.1,30.04,NE,44,1.0,6.0,48,0.00,,---,0.00,VWS V14.01,2013-10-21 20:59:00,
2013-10-21 16:00:00,53.3,35.7,30.04,North,360,4.0,9.0,51,0.00,,---,0.00,VWS V14.01,2013-10-21 21:00:00,
2013-10-21 16:04:00,54.5,35.2,30.04,NNW,333,6.0,6.0,48,0.00,,---,0.00,VWS V14.01,2013-10-21 21:04:00,
2013-10-21 16:09:00,54.5,35.2,30.04,North,10,2.0,6.0,48,0.00,,---,0.00,VWS V14.01,2013-10-21 21:09:00,
2013-10-21 16:14:00,54.4,34.6,30.04,North,5,0.0,6.0,47,0.00,,---,0.00,VWS V14.01,2013-10-21 21:14:00,
2013-10-21 16:19:00,54.5,34.7,30.04,North,5,1.0,6.0,47,0.00,,---,0.00,VWS V14.01,2013-10-21 21:19:00,
2013-10-21 16:24:00,55.0,35.2,30.04,ENE,74,0.0,6.0,47,0.00,,---,0.00,VWS V14.01,2013-10-21 21:24:00,
2013-10-21 16:29:00,55.3,35.4,30.04,WSW,255,0.0,6.0,47,0.00,,---,0.00,VWS V14.01,2013-10-21 21:29:00,
2013-10-21 16:30:00,54.1,35.4,30.04,North,360,2.0,6.0,49,0.00,,---,0.00,VWS V14.01,2013-10-21 21:30:00,
2013-10-21 16:34:00,55.1,34.7,30.04,NNW,330,3.0,4.0,46,0.00,,---,0.00,VWS V14.01,2013-10-21 21:34:00,
2013-10-21 16:39:00,55.0,34.6,30.04,NNW,330,0.0,4.0,46,0.00,,---,0.00,VWS V14.01,2013-10-21 21:39:00,
2013-10-21 16:44:00,54.7,34.3,30.04,NNW,333,0.0,4.0,46,0.00,,---,0.00,VWS V14.01,2013-10-21 21:44:00,
2013-10-21 16:49:00,54.5,34.2,30.03,NNW,333,0.0,4.0,46,0.00,,---,0.00,VWS V14.01,2013-10-21 21:49:00,
2013-10-21 16:54:00,54.5,34.2,30.03,NW,304,2.0,4.0,46,0.00,,---,0.00,VWS V14.01,2013-10-21 21:54:00,
2013-10-21 16:59:00,54.4,34.1,30.03,NNW,331,0.0,5.0,46,0.00,,---,0.00,VWS V14.01,2013-10-21 21:59:00,
2013-10-21 17:00:00,54.5,35.2,30.04,NE,46,2.0,6.0,48,0.00,,---,0.00,VWS V14.01,2013-10-21 22:00:00,
2013-10-21 17:04:00,54.2,33.9,30.03,WNW,293,1.0,3.0,46,0.00,,---,0.00,VWS V14.01,2013-10-21 22:04:00,
2013-10-21 17:09:00,54.1,33.8,30.03,WNW,296,0.0,3.0,46,0.00,,---,0.00,VWS V14.01,2013-10-21 22:09:00,
2013-10-21 17:14:00,54.1,33.8,30.03,WNW,294,1.0,3.0,46,0.00,,---,0.00,VWS V14.01,2013-10-21 22:14:00,
2013-10-21 17:19:00,54.1,33.2,30.03,WNW,291,0.0,3.0,45,0.00,,---,0.00,VWS V14.01,2013-10-21 22:19:00,
2013-10-21 17:24:00,53.9,33.6,30.03,SW,234,1.0,3.0,46,0.00,,---,0.00,VWS V14.01,2013-10-21 22:24:00,
2013-10-21 17:29:00,53.9,33.6,30.03,SW,234,0.0,3.0,46,0.00,,---,0.00,VWS V14.01,2013-10-21 22:29:00,
2013-10-21 17:30:00,55.3,35.4,30.04,WSW,252,0.0,6.0,47,0.00,,---,0.00,VWS V14.01,2013-10-21 22:30:00,
2013-10-21 17:34:00,53.9,33.6,30.03,WSW,237,0.0,1.0,46,0.00,,---,0.00,VWS V14.01,2013-10-21 22:34:00,
2013-10-21 17:39:00,53.9,33.1,30.03,WSW,237,0.0,1.0,45,0.00,,---,0.00,VWS V14.01,2013-10-21 22:39:00,
2013-10-21 17:44:00,53.8,33.0,30.03,WSW,238,1.0,2.0,45,0.00,,---,0.00,VWS V14.01,2013-10-21 22:44:00,
2013-10-21 17:49:00,53.6,32.8,30.03,WSW,240,0.0,3.0,45,0.00,,---,0.00,VWS V14.01,2013-10-21 22:49:00,
2013-10-21 17:54:00,53.3,32.5,30.03,WSW,240,0.0,3.0,45,0.00,,---,0.00,VWS V14.01,2013-10-21 22:54:00,
2013-10-21 17:59:00,53.2,32.4,30.03,WSW,240,0.0,3.0,45,0.00,,---,0.00,VWS V14.01,2013-10-21 22:59:00,
2013-10-21 18:00:00,54.4,34.1,30.03,NNW,331,1.0,5.0,46,0.00,,---,0.00,VWS V14.01,2013-10-21 23:00:00,
2013-10-21 18:04:00,53.1,32.9,30.03,WSW,240,0.0,0.0,46,0.00,,---,0.00,VWS V14.01,2013-10-21 23:04:00,
2013-10-21 18:09:00,53.1,32.9,30.03,WSW,240,0.0,0.0,46,0.00,,---,0.00,VWS V14.01,2013-10-21 23:09:00,
2013-10-21 18:14:00,52.9,32.7,30.03,WSW,240,0.0,0.0,46,0.00,,---,0.00,VWS V14.01,2013-10-21 23:14:00,
2013-10-21 18:19:00,52.6,32.4,30.03,WSW,240,0.0,1.0,46,0.00,,---,0.00,VWS V14.01,2013-10-21 23:19:00,
2013-10-21 18:24:00,52.3,32.2,30.03,WSW,240,0.0,1.0,46,0.00,,---,0.00,VWS V14.01,2013-10-21 23:24:00,
2013-10-21 18:29:00,51.9,31.8,30.03,WSW,240,0.0,1.0,46,0.00,,---,0.00,VWS V14.01,2013-10-21 23:29:00,
2013-10-21 18:30:00,53.9,33.6,30.03,WSW,237,0.0,3.0,46,0.00,,---,0.00,VWS V14.01,2013-10-21 23:30:00,
2013-10-21 18:34:00,51.4,31.9,30.04,WSW,240,0.0,0.0,47,0.00,,---,0.00,VWS V14.01,2013-10-21 23:34:00,
2013-10-21 18:39:00,51.0,31.5,30.04,WSW,240,0.0,0.0,47,0.00,,---,0.00,VWS V14.01,2013-10-21 23:39:00,
2013-10-21 18:44:00,50.5,31.0,30.04,WSW,240,0.0,0.0,47,0.00,,---,0.00,VWS V14.01,2013-10-21 23:44:00,
2013-10-21 18:49:00,49.9,31.0,30.03,WSW,240,0.0,0.0,48,0.00,,---,0.00,VWS V14.01,2013-10-21 23:49:00,
2013-10-21 18:54:00,49.4,31.1,30.03,WSW,240,0.0,0.0,49,0.00,,---,0.00,VWS V14.01,2013-10-21 23:54:00,
2013-10-21 18:59:00,48.8,31.0,30.03,WSW,240,0.0,0.0,50,0.00,,---,0.00,VWS V14.01,2013-10-21 23:59:00,
2013-10-21 19:00:00,53.2,33.0,30.03,WSW,240,0.0,3.0,46,0.00,,---,0.00,VWS V14.01,2013-10-22 00:00:00,
2013-10-21 19:04:00,48.2,30.5,30.03,WSW,240,0.0,0.0,50,0.00,,---,0.00,VWS V14.01,2013-10-22 00:04:00,
2013-10-21 19:09:00,47.6,30.4,30.03,WSW,240,0.0,0.0,51,0.00,,---,0.00,VWS V14.01,2013-10-22 00:09:00,
2013-10-21 19:14:00,46.7,30.0,30.03,WSW,240,0.0,0.0,52,0.00,,---,0.00,VWS V14.01,2013-10-22 00:14:00,
2013-10-21 19:19:00,46.0,29.4,30.03,WSW,240,0.0,0.0,52,0.00,,---,0.00,VWS V14.01,2013-10-22 00:19:00,
2013-10-21 19:24:00,45.2,29.1,30.03,WSW,240,0.0,0.0,53,0.00,,---,0.00,VWS V14.01,2013-10-22 00:24:00,
2013-10-21 19:29:00,44.5,28.5,30.03,WSW,240,0.0,0.0,53,0.00,,---,0.00,VWS V14.01,2013-10-22 00:29:00,
2013-10-21 19:30:00,51.7,32.1,30.04,WSW,240,0.0,1.0,47,0.00,,---,0.00,VWS V14.01,2013-10-22 00:30:00,
2013-10-21 19:34:00,43.8,28.2,30.03,WSW,240,0.0,0.0,54,0.00,,---,0.00,VWS V14.01,2013-10-22 00:34:00,
2013-10-21 19:39:00,42.9,27.4,30.03,WSW,240,0.0,0.0,54,0.00,,---,0.00,VWS V14.01,2013-10-22 00:39:00,
2013-10-21 19:44:00,42.3,27.3,30.03,WSW,240,0.0,0.0,55,0.00,,---,0.00,VWS V14.01,2013-10-22 00:44:00,
2013-10-21 19:49:00,41.8,26.8,30.04,WSW,240,0.0,0.0,55,0.00,,---,0.00,VWS V14.01,2013-10-22 00:49:00,
2013-10-21 19:54:00,41.1,26.6,30.04,WSW,240,0.0,0.0,56,0.00,,---,0.00,VWS V14.01,2013-10-22 00:54:00,
2013-10-21 19:59:00,40.6,26.1,30.04,WSW,240,0.0,0.0,56,0.00,,---,0.00,VWS V14.01,2013-10-22 00:59:00,
2013-10-21 20:00:00,48.5,30.7,30.03,WSW,240,0.0,0.0,50,0.00,,---,0.00,VWS V14.01,2013-10-22 01:00:00,
2013-10-21 20:04:00,40.3,26.3,30.04,WSW,240,0.0,0.0,57,0.00,,---,0.00,VWS V14.01,2013-10-22 01:04:00,
2013-10-21 20:09:00,39.9,25.9,30.04,WSW,240,0.0,0.0,57,0.00,,---,0.00,VWS V14.01,2013-10-22 01:09:00,
2013-10-21 20:14:00,39.5,26.0,30.04,WSW,240,0.0,0.0,58,0.00,,---,0.00,VWS V14.01,2013-10-22 01:14:00,
2013-10-21 20:19:00,39.2,25.7,30.04,WSW,240,0.0,0.0,58,0.00,,---,0.00,VWS V14.01,2013-10-22 01:19:00,
2013-10-21 20:24:00,38.8,25.7,30.04,WSW,240,0.0,0.0,59,0.00,,---,0.00,VWS V14.01,2013-10-22 01:24:00,
2013-10-21 20:29:00,38.5,25.4,30.04,WSW,240,0.0,0.0,59,0.00,,---,0.00,VWS V14.01,2013-10-22 01:29:00,
2013-10-21 20:30:00,44.2,28.6,30.03,WSW,240,0.0,0.0,54,0.00,,---,0.00,VWS V14.01,2013-10-22 01:30:00,
2013-10-21 20:34:00,38.2,25.1,30.03,WSW,240,0.0,0.0,59,0.00,,---,0.00,VWS V14.01,2013-10-22 01:34:00,
2013-10-21 20:39:00,38.0,25.4,30.03,WSW,240,0.0,0.0,60,0.00,,---,0.00,VWS V14.01,2013-10-22 01:39:00,
2013-10-21 20:44:00,37.8,25.2,30.03,WSW,240,0.0,0.0,60,0.00,,---,0.00,VWS V14.01,2013-10-22 01:44:00,
2013-10-21 20:49:00,37.6,25.4,30.03,WSW,240,0.0,0.0,61,0.00,,---,0.00,VWS V14.01,2013-10-22 01:49:00,
2013-10-21 20:54:00,37.5,25.3,30.03,WSW,240,0.0,0.0,61,0.00,,---,0.00,VWS V14.01,2013-10-22 01:54:00,
2013-10-21 20:59:00,37.2,25.4,30.03,WSW,240,0.0,0.0,62,0.00,,---,0.00,VWS V14.01,2013-10-22 01:59:00,
2013-10-21 21:00:00,40.5,26.5,30.04,WSW,240,0.0,0.0,57,0.00,,---,0.00,VWS V14.01,2013-10-22 02:00:00,
2013-10-21 21:04:00,37.0,25.2,30.03,WSW,240,0.0,0.0,62,0.00,,---,0.00,VWS V14.01,2013-10-22 02:04:00,
2013-10-21 21:09:00,36.8,25.0,30.03,WSW,240,0.0,0.0,62,0.00,,---,0.00,VWS V14.01,2013-10-22 02:09:00,
2013-10-21 21:14:00,36.6,25.2,30.03,WSW,240,0.0,0.0,63,0.00,,---,0.00,VWS V14.01,2013-10-22 02:14:00,
2013-10-21 21:19:00,36.5,25.1,30.03,WSW,240,0.0,0.0,63,0.00,,---,0.00,VWS V14.01,2013-10-22 02:19:00,
2013-10-21 21:24:00,36.3,24.9,30.03,WSW,240,0.0,0.0,63,0.00,,---,0.00,VWS V14.01,2013-10-22 02:24:00,
2013-10-21 21:29:00,36.3,25.3,30.03,WSW,240,0.0,0.0,64,0.00,,---,0.00,VWS V14.01,2013-10-22 02:29:00,
2013-10-21 21:30:00,38.3,25.2,30.03,WSW,240,0.0,0.0,59,0.00,,---,0.00,VWS V14.01,2013-10-22 02:30:00,
2013-10-21 21:34:00,36.3,25.3,30.04,WSW,240,0.0,0.0,64,0.00,,---,0.00,VWS V14.01,2013-10-22 02:34:00,
2013-10-21 21:39:00,36.3,25.3,30.04,WSW,240,0.0,0.0,64,0.00,,---,0.00,VWS V14.01,2013-10-22 02:39:00,
2013-10-21 21:44:00,36.5,25.9,30.04,WSW,240,0.0,0.0,65,0.00,,---,0.00,VWS V14.01,2013-10-22 02:44:00,
2013-10-21 21:49:00,37.3,27.4,30.04,WSW,239,0.0,0.0,67,0.00,,---,0.00,VWS V14.01,2013-10-22 02:49:00,
2013-10-21 21:54:00,38.6,28.6,30.04,WSW,239,0.0,0.0,67,0.00,,---,0.00,VWS V14.01,2013-10-22 02:54:00,
2013-10-21 21:59:00,40.2,30.1,30.04,WSW,239,0.0,0.0,67,0.00,,---,0.00,VWS V14.01,2013-10-22 02:59:00,
2013-10-21 22:00:00,40.6,30.5,30.03,WSW,239,0.0,0.0,67,0.00,,---,0.00,VWS V14.01,2013-10-22 03:00:00,
2013-10-21 22:30:00,36.3,25.3,30.04,WSW,240,0.0,0.0,64,0.00,,---,0.00,VWS V14.01,2013-10-22 03:30:00,
2013-10-21 23:00:00,40.6,30.5,30.03,North,0,0.0,0.0,67,3.99,,---,0.00,VWS V14.01,2013-10-22 04:00:00,
2013-10-21 23:30:00,43.1,32.2,30.03,WSW,248,0.0,2.0,65,0.00,,---,0.00,VWS V14.01,2013-10-22 04:30:00,